<?xml version="1.0" encoding="UTF-8" standalone="no" ?>
<gpx xmlns="http://www.topografix.com/GPX/1/1" xmlns:xsi="http://www.w3.org/2001/XMLSchema-instance" xsi:schemaLocation="http://www.topografix.com/GPX/1/1 http://www.topografix.com/GPX/1/1/gpx.xsd" version="1.1" creator="VisuGPX - https://www.visugpx.com">
  <metadata>
    <name>Rialle_Autour_8-22km</name>
    <desc><![CDATA[gnerando idor:6722432_8173011_8173016_12476141_12476155_12511586_12530915_12533090_13050648]]></desc>
  </metadata>
  <wpt lat="47.55079" lon="-1.37723">
    <ele>56.1</ele>
    <name><![CDATA[0000725]]></name>
    <type><![CDATA[Point de départ]]></type>
  </wpt>
  <wpt lat="47.52565" lon="-1.40637">
    <ele>31.3</ele>
    <name><![CDATA[0000726]]></name>
    <desc><![CDATA[<p><br /><h3>Nom: Segment: 1</h3><br />Heure de départ: 05/30/2021 09:30<br/>Heure d'arrivée: 05/30/2021 12:31<br/>Distance: 15,3km (03:00)<br/>Temps déplacement: 02:45<br/>Vitesse moyenne: 5,07 km/h<br/>Vitesse moyenne mouv.: 5,52 km/h<br/>Vitesse Max.: 20,75 km/h<br/>Altitude minimale: 29 m<br/>Altitude maximale: 61 m<br/>Vitesse de montée: 135,3 m/h<br/>Vitesse de descente: -132,1 m/h<br/>Gain d'altitude: 143 m<br/>Perte d'altitude: -165 m<br/>Temps de montée: 01:03<br/>Temps de descente: 01:15<br/></p>]]></desc>
    <type><![CDATA[Point d'arrivée]]></type>
  </wpt>
  <wpt lat="47.52578" lon="-1.40648">
    <ele>31.5</ele>
    <name><![CDATA[0000727]]></name>
    <type><![CDATA[Point de départ]]></type>
  </wpt>
  <wpt lat="47.55083" lon="-1.37712">
    <ele>56.4</ele>
    <name><![CDATA[0000728]]></name>
    <desc><![CDATA[<p><br /><h3>Nom: Segment: 2</h3><br />Heure de départ: 05/30/2021 13:12<br/>Heure d'arrivée: 05/30/2021 14:32<br/>Distance: 6,7km (01:19)<br/>Temps déplacement: 01:16<br/>Vitesse moyenne: 5,05 km/h<br/>Vitesse moyenne mouv.: 5,23 km/h<br/>Vitesse Max.: 8,06 km/h<br/>Altitude minimale: 34 m<br/>Altitude maximale: 68 m<br/>Vitesse de montée: 179 m/h<br/>Vitesse de descente: -145,6 m/h<br/>Gain d'altitude: 102 m<br/>Perte d'altitude: -77 m<br/>Temps de montée: 00:34<br/>Temps de descente: 00:32<br/></p>]]></desc>
    <type><![CDATA[Point d'arrivée]]></type>
  </wpt>
  <trk>
    <name><![CDATA[Riaillé_RigoleAjaux_7.5km-12530915]]></name>
    <extensions>
      <line xmlns="http://www.topografix.com/GPX/gpx_style/0/2">
        <color>00FFFF</color>
        <width>4</width>
      </line>
    </extensions>
    <trkseg>
      <trkpt lat="47.52543" lon="-1.3484">
        <ele>34</ele>
        <time>2023-11-11T19:03:54Z</time>
      </trkpt>
      <trkpt lat="47.52551" lon="-1.34895">
        <ele>35</ele>
        <time>2023-11-11T19:04:45Z</time>
      </trkpt>
      <trkpt lat="47.52615" lon="-1.3494">
        <ele>35</ele>
        <time>2023-11-11T19:06:19Z</time>
      </trkpt>
      <trkpt lat="47.52737" lon="-1.34913">
        <ele>34</ele>
        <time>2023-11-11T19:09:04Z</time>
      </trkpt>
      <trkpt lat="47.52677" lon="-1.34716">
        <ele>34</ele>
        <time>2023-11-11T19:12:19Z</time>
      </trkpt>
      <trkpt lat="47.52662" lon="-1.34564">
        <ele>35</ele>
        <time>2023-11-11T19:14:37Z</time>
      </trkpt>
      <trkpt lat="47.52769" lon="-1.34445">
        <ele>36</ele>
        <time>2023-11-11T19:17:36Z</time>
      </trkpt>
      <trkpt lat="47.52915" lon="-1.34488">
        <ele>37</ele>
        <time>2023-11-11T19:20:54Z</time>
      </trkpt>
      <trkpt lat="47.53099" lon="-1.34391">
        <ele>38</ele>
        <time>2023-11-11T19:25:15Z</time>
      </trkpt>
      <trkpt lat="47.53261" lon="-1.3443">
        <ele>46</ele>
        <time>2023-11-11T19:28:54Z</time>
      </trkpt>
      <trkpt lat="47.53309" lon="-1.34464">
        <ele>49</ele>
        <time>2023-11-11T19:30:05Z</time>
      </trkpt>
      <trkpt lat="47.53277" lon="-1.34622">
        <ele>48</ele>
        <time>2023-11-11T19:32:34Z</time>
      </trkpt>
      <trkpt lat="47.5329" lon="-1.34811">
        <ele>49</ele>
        <time>2023-11-11T19:35:25Z</time>
      </trkpt>
      <trkpt lat="47.53657" lon="-1.34734">
        <ele>51</ele>
        <time>2023-11-11T19:43:39Z</time>
      </trkpt>
      <trkpt lat="47.53702" lon="-1.34937">
        <ele>55</ele>
        <time>2023-11-11T19:46:52Z</time>
      </trkpt>
      <trkpt lat="47.53773" lon="-1.35192">
        <ele>61</ele>
        <time>2023-11-11T19:51:00Z</time>
      </trkpt>
      <trkpt lat="47.5379" lon="-1.35368">
        <ele>58</ele>
        <time>2023-11-11T19:53:40Z</time>
      </trkpt>
      <trkpt lat="47.53607" lon="-1.35499">
        <ele>57</ele>
        <time>2023-11-11T19:58:12Z</time>
      </trkpt>
      <trkpt lat="47.53737" lon="-1.3601">
        <ele>58</ele>
        <time>2023-11-11T20:06:24Z</time>
      </trkpt>
      <trkpt lat="47.53598" lon="-1.36226">
        <ele>57</ele>
        <time>2023-11-11T20:10:53Z</time>
      </trkpt>
      <trkpt lat="47.53425" lon="-1.36365">
        <ele>52</ele>
        <time>2023-11-11T20:15:15Z</time>
      </trkpt>
      <trkpt lat="47.53313" lon="-1.36132">
        <ele>57</ele>
        <time>2023-11-11T20:19:33Z</time>
      </trkpt>
      <trkpt lat="47.53254" lon="-1.35963">
        <ele>57</ele>
        <time>2023-11-11T20:22:24Z</time>
      </trkpt>
      <trkpt lat="47.53227" lon="-1.35933">
        <ele>56</ele>
        <time>2023-11-11T20:23:09Z</time>
      </trkpt>
      <trkpt lat="47.52989" lon="-1.36571">
        <ele>51</ele>
        <time>2023-11-11T20:34:06Z</time>
      </trkpt>
      <trkpt lat="47.52675" lon="-1.36612">
        <ele>58</ele>
        <time>2023-11-11T20:41:07Z</time>
      </trkpt>
      <trkpt lat="47.52524" lon="-1.36852">
        <ele>49</ele>
        <time>2023-11-11T20:46:02Z</time>
      </trkpt>
      <trkpt lat="47.52136" lon="-1.36793">
        <ele>30</ele>
        <time>2023-11-11T20:54:43Z</time>
      </trkpt>
      <trkpt lat="47.52114" lon="-1.36684">
        <ele>29</ele>
        <time>2023-11-11T20:56:25Z</time>
      </trkpt>
      <trkpt lat="47.52165" lon="-1.36546">
        <ele>32</ele>
        <time>2023-11-11T20:58:47Z</time>
      </trkpt>
      <trkpt lat="47.52114" lon="-1.36454">
        <ele>28</ele>
        <time>2023-11-11T21:00:34Z</time>
      </trkpt>
      <trkpt lat="47.52124" lon="-1.36117">
        <ele>30</ele>
        <time>2023-11-11T21:05:38Z</time>
      </trkpt>
      <trkpt lat="47.52176" lon="-1.35923">
        <ele>30</ele>
        <time>2023-11-11T21:08:46Z</time>
      </trkpt>
      <trkpt lat="47.52286" lon="-1.35775">
        <ele>32</ele>
        <time>2023-11-11T21:12:05Z</time>
      </trkpt>
      <trkpt lat="47.52268" lon="-1.35625">
        <ele>35</ele>
        <time>2023-11-11T21:14:22Z</time>
      </trkpt>
      <trkpt lat="47.52183" lon="-1.3554">
        <ele>31</ele>
        <time>2023-11-11T21:16:39Z</time>
      </trkpt>
      <trkpt lat="47.52286" lon="-1.35132">
        <ele>30</ele>
        <time>2023-11-11T21:23:11Z</time>
      </trkpt>
      <trkpt lat="47.52338" lon="-1.34867">
        <ele>29</ele>
        <time>2023-11-11T21:27:20Z</time>
      </trkpt>
      <trkpt lat="47.52499" lon="-1.34686">
        <ele>32</ele>
        <time>2023-11-11T21:31:50Z</time>
      </trkpt>
      <trkpt lat="47.52536" lon="-1.34725">
        <ele>33</ele>
        <time>2023-11-11T21:32:51Z</time>
      </trkpt>
      <trkpt lat="47.52548" lon="-1.34832">
        <ele>33</ele>
        <time>2023-11-11T21:34:28Z</time>
      </trkpt>
    </trkseg>
  </trk>
</gpx>